sensor_id;sensor_type;location;lat;lon;timestamp;pressure;altitude;pressure_sealevel;temperature;humidity
13836;BME280;6988;52.614;13.500;2023-04-08T00:03:46;54662.19;;;-143.77;88.34
13836;BME280;6988;52.614;13.500;2023-04-08T00:08:38;54647.81;;;-143.77;88.34
13836;BME280;6988;52.614;13.500;2023-04-08T00:13:32;54668.34;;;-143.77;88.07
13836;BME280;6988;52.614;13.500;2023-04-08T00:18:23;54664.22;;;-143.77;88.96
13836;BME280;6988;52.614;13.500;2023-04-08T00:23:16;54697.06;;;-143.77;88.26
13836;BME280;6988;52.614;13.500;2023-04-08T00:28:10;54672.44;;;-143.77;88.96
13836;BME280;6988;52.614;13.500;2023-04-08T00:33:04;54651.91;;;-143.77;88.80
13836;BME280;6988;52.614;13.500;2023-04-08T00:37:55;54664.22;;;-143.77;88.60
13836;BME280;6988;52.614;13.500;2023-04-08T00:42:47;54658.06;;;-143.77;88.39
13836;BME280;6988;52.614;13.500;2023-04-08T00:47:39;54662.19;;;-143.77;89.21
13836;BME280;6988;52.614;13.500;2023-04-08T00:52:33;54656.03;;;-143.77;89.24
13836;BME280;6988;52.614;13.500;2023-04-08T00:57:25;54637.56;;;-143.77;89.52
13836;BME280;6988;52.614;13.500;2023-04-08T01:02:27;54670.38;;;-143.77;89.20
13836;BME280;6988;52.614;13.500;2023-04-08T01:07:27;54633.44;;;-143.77;89.41
13836;BME280;6988;52.614;13.500;2023-04-08T01:12:25;54653.97;;;-143.77;89.12
13836;BME280;6988;52.614;13.500;2023-04-08T01:17:21;54668.34;;;-143.77;89.24
13836;BME280;6988;52.614;13.500;2023-04-08T01:22:23;54631.41;;;-143.77;89.57
13836;BME280;6988;52.614;13.500;2023-04-08T01:27:18;54674.50;;;-143.77;89.39
13836;BME280;6988;52.614;13.500;2023-04-08T01:32:11;54690.91;;;-143.77;89.67
13836;BME280;6988;52.614;13.500;2023-04-08T01:37:07;54668.34;;;-143.77;89.49
13836;BME280;6988;52.614;13.500;2023-04-08T01:42:01;54656.03;;;-143.77;89.59
13836;BME280;6988;52.614;13.500;2023-04-08T01:46:56;54672.44;;;-143.77;89.71
13836;BME280;6988;52.614;13.500;2023-04-08T01:51:48;54629.34;;;-143.77;89.94
13836;BME280;6988;52.614;13.500;2023-04-08T01:56:45;54699.13;;;-143.77;89.39
13836;BME280;6988;52.614;13.500;2023-04-08T02:01:38;54653.97;;;-143.77;89.12
13836;BME280;6988;52.614;13.500;2023-04-08T02:06:32;54692.97;;;-143.77;89.01
13836;BME280;6988;52.614;13.500;2023-04-08T02:11:24;54639.59;;;-143.77;88.84
13836;BME280;6988;52.614;13.500;2023-04-08T02:16:22;54682.69;;;-143.77;88.93
13836;BME280;6988;52.614;13.500;2023-04-08T02:21:15;54668.34;;;-143.77;89.19
13836;BME280;6988;52.614;13.500;2023-04-08T02:26:13;54672.44;;;-143.77;88.90
13836;BME280;6988;52.614;13.500;2023-04-08T02:31:09;54676.53;;;-143.77;89.15
13836;BME280;6988;52.614;13.500;2023-04-08T02:36:05;54682.69;;;-143.77;89.24
13836;BME280;6988;52.614;13.500;2023-04-08T02:40:58;54643.72;;;-143.77;89.42
13836;BME280;6988;52.614;13.500;2023-04-08T02:45:54;54672.44;;;-143.77;89.42
13836;BME280;6988;52.614;13.500;2023-04-08T02:50:46;54666.28;;;-143.77;89.48
13836;BME280;6988;52.614;13.500;2023-04-08T02:55:38;54660.13;;;-143.77;89.56
13836;BME280;6988;52.614;13.500;2023-04-08T03:07:02;54676.53;;;-143.77;89.80
13836;BME280;6988;52.614;13.500;2023-04-08T03:11:54;54643.72;;;-143.77;89.23
13836;BME280;6988;52.614;13.500;2023-04-08T03:16:46;54668.34;;;-143.77;90.21
13836;BME280;6988;52.614;13.500;2023-04-08T03:21:38;54686.81;;;-143.77;90.19
13836;BME280;6988;52.614;13.500;2023-04-08T03:26:31;54680.66;;;-143.77;90.13
13836;BME280;6988;52.614;13.500;2023-04-08T03:31:23;54680.66;;;-143.77;89.65
13836;BME280;6988;52.614;13.500;2023-04-08T03:36:14;54656.03;;;-143.77;89.80
13836;BME280;6988;52.614;13.500;2023-04-08T03:41:06;54647.81;;;-143.77;89.91
13836;BME280;6988;52.614;13.500;2023-04-08T03:45:59;54651.91;;;-143.77;90.26
13836;BME280;6988;52.614;13.500;2023-04-08T03:50:51;54670.38;;;-143.77;90.04
13836;BME280;6988;52.614;13.500;2023-04-08T03:55:43;54674.50;;;-143.77;90.25
13836;BME280;6988;52.614;13.500;2023-04-08T04:00:35;54651.91;;;-143.77;90.67
13836;BME280;6988;52.614;13.500;2023-04-08T04:05:28;54682.69;;;-143.77;90.63
13836;BME280;6988;52.614;13.500;2023-04-08T04:10:20;54672.44;;;-143.77;90.21
13836;BME280;6988;52.614;13.500;2023-04-08T04:15:12;54680.66;;;-143.77;90.19
13836;BME280;6988;52.614;13.500;2023-04-08T04:20:05;54660.13;;;-143.77;90.20
13836;BME280;6988;52.614;13.500;2023-04-08T04:31:59;54678.59;;;-143.77;89.93
13836;BME280;6988;52.614;13.500;2023-04-08T04:36:51;54674.50;;;-143.77;90.52
13836;BME280;6988;52.614;13.500;2023-04-08T04:41:43;54668.34;;;-143.77;89.98
13836;BME280;6988;52.614;13.500;2023-04-08T04:46:35;54653.97;;;-143.77;90.06
13836;BME280;6988;52.614;13.500;2023-04-08T04:51:30;54664.22;;;-143.77;89.95
13836;BME280;6988;52.614;13.500;2023-04-08T04:56:22;54662.19;;;-143.77;90.18
13836;BME280;6988;52.614;13.500;2023-04-08T05:01:15;54658.06;;;-143.77;89.91
13836;BME280;6988;52.614;13.500;2023-04-08T05:06:07;54653.97;;;-143.77;89.74
13836;BME280;6988;52.614;13.500;2023-04-08T05:11:00;54670.38;;;-143.77;89.84
13836;BME280;6988;52.614;13.500;2023-04-08T05:15:52;54658.06;;;-143.77;89.81
13836;BME280;6988;52.614;13.500;2023-04-08T05:20:44;54674.50;;;-143.77;90.60
13836;BME280;6988;52.614;13.500;2023-04-08T05:25:39;54674.50;;;-143.77;90.10
13836;BME280;6988;52.614;13.500;2023-04-08T05:30:32;54656.03;;;-143.77;90.06
13836;BME280;6988;52.614;13.500;2023-04-08T05:35:24;54645.75;;;-143.77;90.33
13836;BME280;6988;52.614;13.500;2023-04-08T05:40:16;54639.59;;;-143.77;90.54
13836;BME280;6988;52.614;13.500;2023-04-08T05:45:09;54660.13;;;-143.77;90.50
13836;BME280;6988;52.614;13.500;2023-04-08T05:50:03;54647.81;;;-143.77;90.18
13836;BME280;6988;52.614;13.500;2023-04-08T05:54:55;54658.06;;;-143.77;90.24
13836;BME280;6988;52.614;13.500;2023-04-08T05:59:46;54660.13;;;-143.77;90.67
13836;BME280;6988;52.614;13.500;2023-04-08T06:04:39;54639.59;;;-143.77;90.48
13836;BME280;6988;52.614;13.500;2023-04-08T06:09:35;54633.44;;;-143.77;90.32
13836;BME280;6988;52.614;13.500;2023-04-08T06:14:27;54662.19;;;-143.77;90.10
13836;BME280;6988;52.614;13.500;2023-04-08T06:19:19;54656.03;;;-143.77;90.03
13836;BME280;6988;52.614;13.500;2023-04-08T06:24:11;54623.19;;;-143.77;90.08
13836;BME280;6988;52.614;13.500;2023-04-08T06:29:04;54656.03;;;-143.77;89.99
13836;BME280;6988;52.614;13.500;2023-04-08T06:33:56;54627.28;;;-143.77;90.31
13836;BME280;6988;52.614;13.500;2023-04-08T06:38:48;54612.94;;;-143.77;90.04
13836;BME280;6988;52.614;13.500;2023-04-08T06:43:40;54633.44;;;-143.77;89.47
13836;BME280;6988;52.614;13.500;2023-04-08T06:48:33;54598.56;;;-143.77;89.40
13836;BME280;6988;52.614;13.500;2023-04-08T06:53:27;54623.19;;;-143.77;89.01
13836;BME280;6988;52.614;13.500;2023-04-08T06:58:21;54639.59;;;-143.77;89.19
13836;BME280;6988;52.614;13.500;2023-04-08T07:03:13;54629.34;;;-143.77;88.44
13836;BME280;6988;52.614;13.500;2023-04-08T07:08:07;54619.09;;;-143.77;88.49
13836;BME280;6988;52.614;13.500;2023-04-08T07:12:59;54600.63;;;-143.77;88.18
13836;BME280;6988;52.614;13.500;2023-04-08T07:17:50;54606.78;;;-143.77;87.78
13836;BME280;6988;52.614;13.500;2023-04-08T07:22:43;54590.34;;;-143.77;87.56
13836;BME280;6988;52.614;13.500;2023-04-08T07:27:36;54598.56;;;-143.77;87.56
13836;BME280;6988;52.614;13.500;2023-04-08T07:32:28;54573.94;;;-143.77;86.43
13836;BME280;6988;52.614;13.500;2023-04-08T07:37:19;54559.56;;;-143.77;86.23
13836;BME280;6988;52.614;13.500;2023-04-08T07:42:11;54580.09;;;-143.77;85.92
13836;BME280;6988;52.614;13.500;2023-04-08T07:47:05;54571.88;;;-143.77;85.38
13836;BME280;6988;52.614;13.500;2023-04-08T07:51:57;54580.09;;;-143.77;85.55
13836;BME280;6988;52.614;13.500;2023-04-08T07:56:49;54578.03;;;-143.77;84.61
13836;BME280;6988;52.614;13.500;2023-04-08T08:01:41;54530.84;;;-143.77;84.15
13836;BME280;6988;52.614;13.500;2023-04-08T08:06:34;54545.22;;;-143.77;83.39
13836;BME280;6988;52.614;13.500;2023-04-08T08:11:26;54561.63;;;-143.77;83.41
13836;BME280;6988;52.614;13.500;2023-04-08T08:16:17;54479.56;;;-143.77;83.04
13836;BME280;6988;52.614;13.500;2023-04-08T08:21:09;54518.53;;;-143.77;81.91
13836;BME280;6988;52.614;13.500;2023-04-08T08:26:05;54524.69;;;-143.77;81.62
13836;BME280;6988;52.614;13.500;2023-04-08T08:30:59;54473.41;;;-143.77;81.29
13836;BME280;6988;52.614;13.500;2023-04-08T08:35:51;54500.06;;;-143.77;80.41
13836;BME280;6988;52.614;13.500;2023-04-08T08:40:44;54473.41;;;-143.77;79.97
13836;BME280;6988;52.614;13.500;2023-04-08T08:45:39;54475.44;;;-143.77;79.07
13836;BME280;6988;52.614;13.500;2023-04-08T08:50:32;54504.19;;;-143.77;79.42
13836;BME280;6988;52.614;13.500;2023-04-08T09:02:23;54549.31;;;-143.77;80.52
13836;BME280;6988;52.614;13.500;2023-04-08T09:07:16;54516.50;;;-143.77;79.81
13836;BME280;6988;52.614;13.500;2023-04-08T09:12:08;54500.06;;;-143.77;80.46
13836;BME280;6988;52.614;13.500;2023-04-08T09:17:01;54504.19;;;-143.77;80.32
13836;BME280;6988;52.614;13.500;2023-04-08T09:22:07;54498.03;;;-143.77;79.18
13836;BME280;6988;52.614;13.500;2023-04-08T09:26:59;54475.44;;;-143.77;78.59
13836;BME280;6988;52.614;13.500;2023-04-08T09:31:54;54448.78;;;-143.77;78.02
13836;BME280;6988;52.614;13.500;2023-04-08T09:36:47;54444.66;;;-143.77;77.62
13836;BME280;6988;52.614;13.500;2023-04-08T09:41:42;54471.34;;;-143.77;76.39
13836;BME280;6988;52.614;13.500;2023-04-08T09:46:46;54420.03;;;-143.77;74.99
13836;BME280;6988;52.614;13.500;2023-04-08T09:51:53;54403.63;;;-143.77;75.72
13836;BME280;6988;52.614;13.500;2023-04-08T09:56:58;54432.34;;;-143.77;75.06
13836;BME280;6988;52.614;13.500;2023-04-08T10:01:54;54432.34;;;-143.77;75.58
13836;BME280;6988;52.614;13.500;2023-04-08T10:06:56;54331.81;;;-143.77;74.46
13836;BME280;6988;52.614;13.500;2023-04-08T10:11:49;54251.78;;;-143.77;73.08
13836;BME280;6988;52.614;13.500;2023-04-08T10:16:41;54196.41;;;-143.77;70.86
13836;BME280;6988;52.614;13.500;2023-04-08T10:21:34;54337.97;;;-143.77;69.32
13836;BME280;6988;52.614;13.500;2023-04-08T10:26:34;54325.66;;;-143.77;65.79
13836;BME280;6988;52.614;13.500;2023-04-08T10:31:26;54372.84;;;-143.77;68.63
13836;BME280;6988;52.614;13.500;2023-04-08T10:42:55;54342.06;;;-143.77;68.38
13836;BME280;6988;52.614;13.500;2023-04-08T10:47:47;54229.22;;;-143.77;68.09
13836;BME280;6988;52.614;13.500;2023-04-08T10:52:46;54342.06;;;-143.77;67.31
13836;BME280;6988;52.614;13.500;2023-04-08T10:57:38;54379.00;;;-143.77;67.74
13836;BME280;6988;52.614;13.500;2023-04-08T11:02:33;54391.31;;;-143.77;66.04
13836;BME280;6988;52.614;13.500;2023-04-08T11:07:24;54358.50;;;-143.77;65.88
13836;BME280;6988;52.614;13.500;2023-04-08T11:12:17;54335.91;;;-143.77;65.52
13836;BME280;6988;52.614;13.500;2023-04-08T11:17:09;54290.78;;;-143.77;66.27
13836;BME280;6988;52.614;13.500;2023-04-08T11:22:04;54290.78;;;-143.77;64.25
13836;BME280;6988;52.614;13.500;2023-04-08T11:26:57;54321.56;;;-143.77;65.16
13836;BME280;6988;52.614;13.500;2023-04-08T11:31:49;54270.25;;;-143.77;66.05
13836;BME280;6988;52.614;13.500;2023-04-08T11:36:41;54294.88;;;-143.77;64.01
13836;BME280;6988;52.614;13.500;2023-04-08T11:41:38;54313.34;;;-143.77;62.46
13836;BME280;6988;52.614;13.500;2023-04-08T11:46:30;54358.50;;;-143.77;64.40
13836;BME280;6988;52.614;13.500;2023-04-08T11:51:22;54340.03;;;-143.77;64.73
13836;BME280;6988;52.614;13.500;2023-04-08T11:56:16;54335.91;;;-143.77;64.26
13836;BME280;6988;52.614;13.500;2023-04-08T12:01:09;54331.81;;;-143.77;65.76
13836;BME280;6988;52.614;13.500;2023-04-08T12:06:02;54362.59;;;-143.77;65.91
13836;BME280;6988;52.614;13.500;2023-04-08T12:10:55;54372.84;;;-143.77;65.91
13836;BME280;6988;52.614;13.500;2023-04-08T12:15:46;54381.06;;;-143.77;66.71
13836;BME280;6988;52.614;13.500;2023-04-08T12:20:40;54333.88;;;-143.77;64.77
13836;BME280;6988;52.614;13.500;2023-04-08T12:25:31;54323.59;;;-143.77;65.01
13836;BME280;6988;52.614;13.500;2023-04-08T12:30:23;54352.34;;;-143.77;65.27
13836;BME280;6988;52.614;13.500;2023-04-08T12:35:15;54352.34;;;-143.77;65.00
13836;BME280;6988;52.614;13.500;2023-04-08T12:40:10;54368.75;;;-143.77;62.58
13836;BME280;6988;52.614;13.500;2023-04-08T12:45:03;54362.59;;;-143.77;64.60
13836;BME280;6988;52.614;13.500;2023-04-08T12:49:55;54274.38;;;-143.77;62.01
13836;BME280;6988;52.614;13.500;2023-04-08T12:54:47;54257.94;;;-143.77;62.60
13836;BME280;6988;52.614;13.500;2023-04-08T12:59:40;54288.72;;;-143.77;61.84
13836;BME280;6988;52.614;13.500;2023-04-08T13:04:32;54122.53;;;-143.77;58.45
13836;BME280;6988;52.614;13.500;2023-04-08T13:09:24;54221.03;;;-143.77;57.14
13836;BME280;6988;52.614;13.500;2023-04-08T13:14:16;54110.22;;;-143.77;57.05
13836;BME280;6988;52.614;13.500;2023-04-08T13:25:40;54229.22;;;-143.77;55.45
13836;BME280;6988;52.614;13.500;2023-04-08T13:30:32;54188.19;;;-143.77;57.07
13836;BME280;6988;52.614;13.500;2023-04-08T13:35:24;54212.81;;;-143.77;55.28
13836;BME280;6988;52.614;13.500;2023-04-08T13:40:16;54155.38;;;-143.77;52.67
13836;BME280;6988;52.614;13.500;2023-04-08T13:45:10;54138.94;;;-143.77;53.41
13836;BME280;6988;52.614;13.500;2023-04-08T13:50:02;54225.13;;;-143.77;49.37
13836;BME280;6988;52.614;13.500;2023-04-08T13:54:54;54173.81;;;-143.77;49.30
13836;BME280;6988;52.614;13.500;2023-04-08T13:59:46;54235.38;;;-143.77;53.42
13836;BME280;6988;52.614;13.500;2023-04-08T14:04:39;54264.09;;;-143.77;54.49
13836;BME280;6988;52.614;13.500;2023-04-08T14:09:31;54194.34;;;-143.77;52.67
13836;BME280;6988;52.614;13.500;2023-04-08T14:14:23;54243.59;;;-143.77;50.97
13836;BME280;6988;52.614;13.500;2023-04-08T14:19:15;54177.94;;;-143.77;49.83
13836;BME280;6988;52.614;13.500;2023-04-08T14:24:09;54163.56;;;-143.77;47.79
13836;BME280;6988;52.614;13.500;2023-04-08T14:29:02;54216.91;;;-143.77;49.50
13836;BME280;6988;52.614;13.500;2023-04-08T14:33:54;54243.59;;;-143.77;49.73
13836;BME280;6988;52.614;13.500;2023-04-08T14:45:19;54200.50;;;-143.77;49.79
13836;BME280;6988;52.614;13.500;2023-04-08T14:50:11;54282.56;;;-143.77;50.86
13836;BME280;6988;52.614;13.500;2023-04-08T14:55:04;54266.16;;;-143.77;52.62
13836;BME280;6988;52.614;13.500;2023-04-08T14:59:56;54182.03;;;-143.77;54.49
13836;BME280;6988;52.614;13.500;2023-04-08T15:04:50;54136.91;;;-143.77;51.39
13836;BME280;6988;52.614;13.500;2023-04-08T15:09:42;54114.31;;;-143.77;47.52
13836;BME280;6988;52.614;13.500;2023-04-08T15:14:35;54141.00;;;-143.77;49.05
13836;BME280;6988;52.614;13.500;2023-04-08T15:19:27;54149.22;;;-143.77;48.39
13836;BME280;6988;52.614;13.500;2023-04-08T15:24:20;54229.22;;;-143.77;50.75
13836;BME280;6988;52.614;13.500;2023-04-08T15:29:12;54301.03;;;-143.77;52.82
13836;BME280;6988;52.614;13.500;2023-04-08T15:34:04;54319.50;;;-143.77;56.04
13836;BME280;6988;52.614;13.500;2023-04-08T15:38:56;54315.41;;;-143.77;57.05
13836;BME280;6988;52.614;13.500;2023-04-08T15:43:49;54298.97;;;-143.77;55.03
13836;BME280;6988;52.614;13.500;2023-04-08T15:55:14;54294.88;;;-143.77;52.39
13836;BME280;6988;52.614;13.500;2023-04-08T16:00:09;54315.41;;;-143.77;52.91
13836;BME280;6988;52.614;13.500;2023-04-08T16:05:05;54286.69;;;-143.77;50.23
13836;BME280;6988;52.614;13.500;2023-04-08T16:09:58;54284.63;;;-143.77;53.07
13836;BME280;6988;52.614;13.500;2023-04-08T16:14:50;54294.88;;;-143.77;53.83
13836;BME280;6988;52.614;13.500;2023-04-08T16:22:23;54282.56;;;-143.77;55.22
13836;BME280;6988;52.614;13.500;2023-04-08T16:25:39;54331.81;;;-143.77;57.21
13836;BME280;6988;52.614;13.500;2023-04-08T16:30:31;54342.06;;;-143.77;57.63
13836;BME280;6988;52.614;13.500;2023-04-08T16:35:24;54364.66;;;-143.77;59.09
13836;BME280;6988;52.614;13.500;2023-04-08T16:40:16;54379.00;;;-143.77;59.96
13836;BME280;6988;52.614;13.500;2023-04-08T16:45:09;54368.75;;;-143.77;59.69
13836;BME280;6988;52.614;13.500;2023-04-08T16:50:01;54381.06;;;-143.77;59.80
13836;BME280;6988;52.614;13.500;2023-04-08T16:54:57;54358.50;;;-143.77;61.04
13836;BME280;6988;52.614;13.500;2023-04-08T16:59:49;54397.47;;;-143.77;62.44
13836;BME280;6988;52.614;13.500;2023-04-08T17:04:41;54407.72;;;-143.77;63.33
13836;BME280;6988;52.614;13.500;2023-04-08T17:09:33;54399.53;;;-143.77;62.53
13836;BME280;6988;52.614;13.500;2023-04-08T17:14:26;54446.72;;;-143.77;63.13
13836;BME280;6988;52.614;13.500;2023-04-08T17:19:18;54446.72;;;-143.77;63.00
13836;BME280;6988;52.614;13.500;2023-04-08T17:24:10;54465.19;;;-143.77;64.14
13836;BME280;6988;52.614;13.500;2023-04-08T17:29:02;54467.25;;;-143.77;63.16
13836;BME280;6988;52.614;13.500;2023-04-08T17:33:55;54495.97;;;-143.77;64.62
13836;BME280;6988;52.614;13.500;2023-04-08T17:38:47;54508.28;;;-143.77;65.24
13836;BME280;6988;52.614;13.500;2023-04-08T17:43:38;54514.44;;;-143.77;66.37
13836;BME280;6988;52.614;13.500;2023-04-08T17:48:31;54510.34;;;-143.77;67.87
13836;BME280;6988;52.614;13.500;2023-04-08T17:53:24;54514.44;;;-143.77;66.86
13836;BME280;6988;52.614;13.500;2023-04-08T17:58:15;54524.69;;;-143.77;66.92
13836;BME280;6988;52.614;13.500;2023-04-08T18:03:08;54524.69;;;-143.77;66.77
13836;BME280;6988;52.614;13.500;2023-04-08T18:14:32;54545.22;;;-143.77;67.87
13836;BME280;6988;52.614;13.500;2023-04-08T18:19:25;54569.84;;;-143.77;68.30
13836;BME280;6988;52.614;13.500;2023-04-08T18:24:17;54516.50;;;-143.77;69.02
13836;BME280;6988;52.614;13.500;2023-04-08T18:29:11;54545.22;;;-143.77;68.87
13836;BME280;6988;52.614;13.500;2023-04-08T18:34:04;54578.03;;;-143.77;68.87
13836;BME280;6988;52.614;13.500;2023-04-08T18:38:56;54559.56;;;-143.77;68.28
13836;BME280;6988;52.614;13.500;2023-04-08T18:56:54;54553.41;;;-143.77;68.26
13836;BME280;6988;52.614;13.500;2023-04-08T19:01:46;54573.94;;;-143.77;67.81
13836;BME280;6988;52.614;13.500;2023-04-08T19:06:38;54617.03;;;-143.77;67.78
13836;BME280;6988;52.614;13.500;2023-04-08T19:11:31;54573.94;;;-143.77;68.30
13836;BME280;6988;52.614;13.500;2023-04-08T19:16:28;54567.78;;;-143.77;68.69
13836;BME280;6988;52.614;13.500;2023-04-08T19:21:21;54541.09;;;-143.77;68.52
13836;BME280;6988;52.614;13.500;2023-04-08T19:26:12;54567.78;;;-143.77;68.80
13836;BME280;6988;52.614;13.500;2023-04-08T19:31:04;54590.34;;;-143.77;69.37
13836;BME280;6988;52.614;13.500;2023-04-08T19:35:57;54619.09;;;-143.77;70.01
13836;BME280;6988;52.614;13.500;2023-04-08T19:40:49;54559.56;;;-143.77;69.63
13836;BME280;6988;52.614;13.500;2023-04-08T19:45:41;54590.34;;;-143.77;69.72
13836;BME280;6988;52.614;13.500;2023-04-08T19:50:36;54602.66;;;-143.77;69.60
13836;BME280;6988;52.614;13.500;2023-04-08T19:55:29;54516.50;;;-143.77;69.56
13836;BME280;6988;52.614;13.500;2023-04-08T20:00:23;54619.09;;;-143.77;69.56
13836;BME280;6988;52.614;13.500;2023-04-08T20:05:15;54569.84;;;-143.77;70.01
13836;BME280;6988;52.614;13.500;2023-04-08T20:10:09;54588.31;;;-143.77;70.01
13836;BME280;6988;52.614;13.500;2023-04-08T20:15:04;54586.25;;;-143.77;70.56
13836;BME280;6988;52.614;13.500;2023-04-08T20:19:56;54576.00;;;-143.77;70.47
13836;BME280;6988;52.614;13.500;2023-04-08T20:24:48;54602.66;;;-143.77;69.83
13836;BME280;6988;52.614;13.500;2023-04-08T20:29:40;54582.16;;;-143.77;70.27
13836;BME280;6988;52.614;13.500;2023-04-08T20:34:33;54617.03;;;-143.77;69.50
13836;BME280;6988;52.614;13.500;2023-04-08T20:39:25;54590.34;;;-143.77;69.99
13836;BME280;6988;52.614;13.500;2023-04-08T20:44:20;54549.31;;;-143.77;70.20
13836;BME280;6988;52.614;13.500;2023-04-08T20:49:12;54619.09;;;-143.77;70.05
13836;BME280;6988;52.614;13.500;2023-04-08T20:54:05;54592.41;;;-143.77;69.67
13836;BME280;6988;52.614;13.500;2023-04-08T20:58:56;54561.63;;;-143.77;69.80
13836;BME280;6988;52.614;13.500;2023-04-08T21:03:48;54633.44;;;-143.77;69.09
13836;BME280;6988;52.614;13.500;2023-04-08T21:08:40;54602.66;;;-143.77;68.84
13836;BME280;6988;52.614;13.500;2023-04-08T21:13:33;54602.66;;;-143.77;69.18
13836;BME280;6988;52.614;13.500;2023-04-08T21:18:25;54573.94;;;-143.77;68.69
13836;BME280;6988;52.614;13.500;2023-04-08T21:23:17;54623.19;;;-143.77;68.53
13836;BME280;6988;52.614;13.500;2023-04-08T21:28:09;54598.56;;;-143.77;68.97
13836;BME280;6988;52.614;13.500;2023-04-08T21:33:02;54631.41;;;-143.77;68.74
13836;BME280;6988;52.614;13.500;2023-04-08T21:37:53;54578.03;;;-143.77;68.84
13836;BME280;6988;52.614;13.500;2023-04-08T21:42:45;54602.66;;;-143.77;69.80
13836;BME280;6988;52.614;13.500;2023-04-08T22:16:43;54664.22;;;-143.77;70.27
13836;BME280;6988;52.614;13.500;2023-04-08T22:21:35;54668.34;;;-143.77;70.39
13836;BME280;6988;52.614;13.500;2023-04-08T22:26:27;54651.91;;;-143.77;70.84
13836;BME280;6988;52.614;13.500;2023-04-08T22:31:19;54656.03;;;-143.77;71.16
13836;BME280;6988;52.614;13.500;2023-04-08T22:36:12;54639.59;;;-143.77;70.98
13836;BME280;6988;52.614;13.500;2023-04-08T22:41:04;54686.81;;;-143.77;70.97
13836;BME280;6988;52.614;13.500;2023-04-08T22:45:56;54647.81;;;-143.77;70.88
13836;BME280;6988;52.614;13.500;2023-04-08T22:50:48;54658.06;;;-143.77;70.98
13836;BME280;6988;52.614;13.500;2023-04-08T22:55:41;54686.81;;;-143.77;71.75
13836;BME280;6988;52.614;13.500;2023-04-08T23:00:32;54684.75;;;-143.77;71.86
13836;BME280;6988;52.614;13.500;2023-04-08T23:05:24;54643.72;;;-143.77;71.51
13836;BME280;6988;52.614;13.500;2023-04-08T23:10:16;54668.34;;;-143.77;71.72
13836;BME280;6988;52.614;13.500;2023-04-08T23:15:10;54670.38;;;-143.77;71.89
13836;BME280;6988;52.614;13.500;2023-04-08T23:20:02;54721.69;;;-143.77;72.27
13836;BME280;6988;52.614;13.500;2023-04-08T23:24:54;54701.16;;;-143.77;72.61
13836;BME280;6988;52.614;13.500;2023-04-08T23:29:46;54709.38;;;-143.77;72.63
13836;BME280;6988;52.614;13.500;2023-04-08T23:34:39;54709.38;;;-143.77;73.01
13836;BME280;6988;52.614;13.500;2023-04-08T23:39:31;54717.59;;;-143.77;73.16
13836;BME280;6988;52.614;13.500;2023-04-08T23:44:23;54707.31;;;-143.77;73.32
13836;BME280;6988;52.614;13.500;2023-04-08T23:49:15;54701.16;;;-143.77;73.55
13836;BME280;6988;52.614;13.500;2023-04-08T23:54:08;54705.28;;;-143.77;73.28
13836;BME280;6988;52.614;13.500;2023-04-08T23:59:00;54719.63;;;-143.77;74.08
